createdAt,value
2018-11-06T00:01:20.100Z,100029.61
2018-11-06T00:05:23.906Z,100028.28
2018-11-06T00:09:27.744Z,100027.86
2018-11-06T00:13:31.484Z,100026.09
2018-11-06T00:17:35.265Z,100022.12
2018-11-06T00:21:39.154Z,100011.13
2018-11-06T00:25:42.970Z,100001.44
2018-11-06T00:29:46.734Z,99995.28
2018-11-06T00:33:50.530Z,100001.91
2018-11-06T00:37:54.315Z,99991.77
2018-11-06T00:41:58.084Z,99991.76
2018-11-06T00:46:01.873Z,99989.58
2018-11-06T00:50:06.597Z,99980.34
2018-11-06T00:54:10.342Z,99979.00
2018-11-06T00:58:14.104Z,99975.50
2018-11-06T01:02:17.940Z,99963.64
2018-11-06T01:06:21.824Z,99972.00
2018-11-06T01:10:25.626Z,99960.56
2018-11-06T01:14:29.417Z,99957.48
2018-11-06T01:18:33.133Z,99962.75
2018-11-06T01:22:36.970Z,99964.49
2018-11-06T01:26:40.724Z,99963.63
2018-11-06T01:30:45.665Z,99960.11
2018-11-06T01:34:49.380Z,99968.02
2018-11-06T01:38:53.193Z,99963.63
2018-11-06T01:42:56.963Z,99973.27
2018-11-06T01:47:00.671Z,99964.48
2018-11-06T01:51:06.131Z,99973.25
2018-11-06T01:55:11.138Z,99969.28
2018-11-06T01:59:14.861Z,99966.20
2018-11-06T02:03:18.579Z,99957.42
2018-11-06T02:07:22.353Z,99958.27
2018-11-06T02:11:26.127Z,99943.75
2018-11-06T02:15:29.910Z,99945.95
2018-11-06T02:19:34.018Z,99941.13
2018-11-06T02:23:37.779Z,99929.25
2018-11-06T02:27:41.511Z,99926.19
2018-11-06T02:31:45.245Z,99919.59
2018-11-06T02:35:49.002Z,99914.31
2018-11-06T02:39:52.787Z,99908.15
2018-11-06T02:43:56.503Z,99905.52
2018-11-06T02:48:00.244Z,99908.15
2018-11-06T02:52:03.984Z,99904.64
2018-11-06T02:56:08.351Z,99894.97
2018-11-06T03:00:14.701Z,99880.48
2018-11-06T03:04:18.451Z,99884.86
2018-11-06T03:08:22.214Z,99886.17
2018-11-06T03:12:25.958Z,99882.66
2018-11-06T03:16:29.724Z,99874.76
2018-11-06T03:20:33.478Z,99873.89
2018-11-06T03:24:37.220Z,99876.53
2018-11-06T03:28:40.979Z,99891.02
2018-11-06T03:32:45.022Z,99888.80
2018-11-06T03:36:48.814Z,99910.80
2018-11-06T03:40:52.583Z,99916.48
2018-11-06T03:44:56.285Z,99916.48
2018-11-06T03:49:00.296Z,99915.17
2018-11-06T03:53:04.405Z,99926.61
2018-11-06T03:57:08.135Z,99934.95
2018-11-06T04:01:11.912Z,99948.14
2018-11-06T04:05:15.628Z,99949.02
2018-11-06T04:09:19.371Z,99939.34
2018-11-06T04:13:23.119Z,99938.03
2018-11-06T04:17:26.546Z,99940.67
2018-11-06T04:21:45.493Z,99944.61
2018-11-06T04:25:49.028Z,99957.80
2018-11-06T04:29:52.485Z,99960.86
2018-11-06T04:33:55.994Z,99971.86
2018-11-06T04:37:59.503Z,99973.62
2018-11-06T04:42:04.157Z,99983.70
2018-11-06T04:46:07.598Z,99988.55
2018-11-06T04:50:11.821Z,99987.20
2018-11-06T04:54:15.370Z,99993.38
2018-11-06T04:58:18.953Z,99993.36
2018-11-06T05:02:22.610Z,100000.83
2018-11-06T05:06:26.191Z,100009.15
2018-11-06T05:10:29.875Z,100011.78
2018-11-06T05:14:33.720Z,100008.72
2018-11-06T05:18:37.421Z,100005.61
2018-11-06T05:22:41.263Z,99988.91
2018-11-06T05:26:45.041Z,100001.17
2018-11-06T05:30:48.705Z,99997.22
2018-11-06T05:34:52.892Z,99995.02
2018-11-06T05:38:56.660Z,100006.37
2018-11-06T05:43:00.345Z,100011.19
2018-11-06T05:47:04.113Z,100014.23
2018-11-06T05:51:07.601Z,100016.86
2018-11-06T05:55:11.246Z,100021.69
2018-11-06T05:59:14.979Z,100032.25
2018-11-06T06:03:18.600Z,100040.15
2018-11-06T06:07:22.667Z,100032.67
2018-11-06T06:11:26.301Z,100035.73
2018-11-06T06:15:29.998Z,100036.19
2018-11-06T06:19:33.607Z,100042.35
2018-11-06T06:23:37.367Z,100031.83
2018-11-06T06:27:40.942Z,100031.83
2018-11-06T06:31:44.581Z,100036.63
2018-11-06T06:35:48.092Z,100028.27
2018-11-06T06:39:51.741Z,100040.53
2018-11-06T06:43:55.365Z,100032.63
2018-11-06T06:47:58.940Z,100044.10
2018-11-06T06:52:02.583Z,100044.98
2018-11-06T06:56:06.672Z,100040.14
2018-11-06T07:00:13.357Z,100039.31
2018-11-06T07:04:18.298Z,100035.33
2018-11-06T07:08:21.874Z,100039.26
2018-11-06T07:12:25.364Z,100035.28
2018-11-06T07:16:28.978Z,100026.55
2018-11-06T07:20:32.690Z,100039.72
2018-11-06T07:24:36.256Z,100026.13
2018-11-06T07:28:39.857Z,100027.47
2018-11-06T07:32:43.978Z,100029.27
2018-11-06T07:36:47.491Z,100037.19
2018-11-06T07:40:51.190Z,100037.67
2018-11-06T07:44:54.885Z,100040.80
2018-11-06T07:48:58.690Z,100039.53
2018-11-06T07:53:02.356Z,100036.06
2018-11-06T07:57:06.339Z,100034.34
2018-11-06T08:01:10.054Z,100037.91
2018-11-06T08:05:14.061Z,100026.06
2018-11-06T08:09:17.739Z,100030.47
2018-11-06T08:13:21.385Z,100031.38
2018-11-06T08:17:25.030Z,100028.73
2018-11-06T08:21:28.643Z,100034.92
2018-11-06T08:25:32.957Z,100030.95
2018-11-06T08:29:36.957Z,100025.66
2018-11-06T08:33:40.954Z,100036.66
2018-11-06T08:37:45.089Z,100037.53
2018-11-06T08:41:48.812Z,100043.25
2018-11-06T08:45:52.959Z,100038.38
2018-11-06T08:49:56.949Z,100041.45
2018-11-06T08:54:00.864Z,100040.55
2018-11-06T08:58:04.789Z,100049.79
2018-11-06T09:02:08.700Z,100046.69
2018-11-06T09:06:12.619Z,100043.59
2018-11-06T09:10:17.045Z,100034.75
2018-11-06T09:14:20.973Z,100042.67
2018-11-06T09:18:24.877Z,100026.75
2018-11-06T09:22:28.742Z,100027.14
2018-11-06T09:26:32.726Z,99999.36
2018-11-06T09:30:36.602Z,100011.67
2018-11-06T09:34:41.410Z,100001.54
2018-11-06T09:38:45.249Z,100015.58
2018-11-06T09:42:49.047Z,100007.16
2018-11-06T09:46:53.261Z,100002.73
2018-11-06T09:50:57.160Z,100003.58
2018-11-06T09:55:01.178Z,99996.95
2018-11-06T09:59:05.085Z,99986.37
2018-11-06T10:03:09.002Z,99981.52
2018-11-06T10:07:13.287Z,99986.35
2018-11-06T10:11:16.922Z,99970.03
2018-11-06T10:15:21.714Z,99970.02
2018-11-06T10:19:25.775Z,99979.67
2018-11-06T10:23:29.703Z,99971.70
2018-11-06T10:27:33.782Z,99962.40
2018-11-06T10:31:39.347Z,99959.20
2018-11-06T10:36:00.591Z,99951.16
2018-11-06T10:40:05.308Z,99947.62
2018-11-06T10:44:11.354Z,99946.60
2018-11-06T10:48:16.921Z,99936.41
2018-11-06T10:52:21.511Z,99933.66
2018-11-06T10:56:26.491Z,99923.42
2018-11-06T11:00:35.698Z,99917.63
2018-11-06T11:04:46.603Z,99906.97
2018-11-06T11:08:59.662Z,99898.41
2018-11-06T11:17:28.183Z,99894.59
2018-11-06T11:30:29.159Z,99889.84
2018-11-06T11:39:17.296Z,99894.01
2018-11-06T11:56:58.386Z,99876.34
2018-11-06T13:05:44.665Z,99814.97
2018-11-06T13:33:10.250Z,99819.84
2018-11-06T13:37:37.043Z,99816.73
2018-11-06T14:13:40.977Z,99818.45
2018-11-06T14:17:44.593Z,99810.95
2018-11-06T14:21:48.446Z,99795.06
2018-11-06T14:25:52.015Z,99786.72
2018-11-06T14:29:55.601Z,99800.89
2018-11-06T14:33:59.067Z,99808.47
2018-11-06T14:38:02.765Z,99799.65
2018-11-06T14:42:06.524Z,99799.70
2018-11-06T14:46:10.047Z,99803.31
2018-11-06T14:50:13.880Z,99801.12
2018-11-06T14:54:17.549Z,99807.35
2018-11-06T14:58:21.087Z,99792.83
2018-11-06T15:02:24.950Z,99792.88
2018-11-06T15:06:28.501Z,99785.86
2018-11-06T15:10:32.331Z,99790.81
2018-11-06T15:14:35.896Z,99790.03
2018-11-06T15:18:39.935Z,99795.86
2018-11-06T15:22:44.068Z,99800.35
2018-11-06T15:26:47.862Z,99805.31
2018-11-06T15:30:51.623Z,99799.64
2018-11-06T15:34:55.225Z,99794.44
2018-11-06T15:38:58.871Z,99784.34
2018-11-06T15:43:02.453Z,99791.90
2018-11-06T15:47:06.093Z,99781.80
2018-11-06T15:51:09.859Z,99793.78
2018-11-06T15:55:15.631Z,99790.28
2018-11-06T15:59:19.298Z,99792.96
2018-11-06T16:03:22.887Z,99789.92
2018-11-06T16:07:26.551Z,99805.49
2018-11-06T16:11:30.229Z,99801.55
2018-11-06T16:15:33.876Z,99804.72
2018-11-06T16:19:37.366Z,99794.18
2018-11-06T16:23:41.183Z,99801.34
2018-11-06T16:27:45.119Z,99800.09
2018-11-06T16:31:48.777Z,99799.69
2018-11-06T16:35:52.343Z,99802.84
2018-11-06T16:39:56.061Z,99805.56
2018-11-06T16:43:59.601Z,99810.05
2018-11-06T16:48:03.274Z,99809.69
2018-11-06T16:52:06.789Z,99816.36
2018-11-06T16:56:10.377Z,99813.78
2018-11-06T17:00:15.486Z,99811.57
2018-11-06T17:04:18.933Z,99805.02
2018-11-06T17:08:22.474Z,99795.81
2018-11-06T17:12:26.022Z,99806.45
2018-11-06T17:16:29.684Z,99802.97
2018-11-06T17:20:33.284Z,99800.36
2018-11-06T17:24:36.822Z,99794.30
2018-11-06T17:28:40.388Z,99801.80
2018-11-06T17:32:44.961Z,99805.41
2018-11-06T17:36:48.670Z,99799.73
2018-11-06T17:40:52.232Z,99793.63
2018-11-06T17:44:55.817Z,99796.81
2018-11-06T17:48:59.340Z,99784.02
2018-11-06T17:53:02.896Z,99791.62
2018-11-06T17:57:06.450Z,99800.09
2018-11-06T18:01:10.014Z,99793.08
2018-11-06T18:05:14.626Z,99795.75
2018-11-06T18:09:18.226Z,99789.62
2018-11-06T18:13:21.875Z,99782.62
2018-11-06T18:17:25.477Z,99794.16
2018-11-06T18:21:29.026Z,99801.27
2018-11-06T18:25:32.704Z,99804.83
2018-11-06T18:29:36.179Z,99793.84
2018-11-06T18:33:39.686Z,99806.64
2018-11-06T18:37:43.398Z,99804.49
2018-11-06T18:41:46.966Z,99818.66
2018-11-06T18:45:50.787Z,99823.58
2018-11-06T18:49:54.506Z,99827.59
2018-11-06T18:53:57.944Z,99829.38
2018-11-06T18:58:01.680Z,99831.20
2018-11-06T19:02:05.551Z,99832.61
2018-11-06T19:06:09.186Z,99840.09
2018-11-06T19:10:13.774Z,99838.77
2018-11-06T19:14:17.333Z,99829.98
2018-11-06T19:18:20.833Z,99833.52
2018-11-06T19:22:24.421Z,99828.70
2018-11-06T19:26:27.998Z,99829.15
2018-11-06T19:30:31.671Z,99817.72
2018-11-06T19:34:35.300Z,99810.26
2018-11-06T19:38:38.801Z,99808.55
2018-11-06T19:42:43.119Z,99807.25
2018-11-06T19:46:47.073Z,99809.47
2018-11-06T19:50:50.683Z,99823.15
2018-11-06T19:54:54.225Z,99828.50
2018-11-06T19:58:58.444Z,99833.77
2018-11-06T20:03:02.453Z,99825.86
2018-11-06T20:07:09.003Z,99843.06
2018-11-06T20:11:12.920Z,99851.45
2018-11-06T20:15:17.302Z,99847.95
2018-11-06T20:19:21.305Z,99848.42
2018-11-06T20:23:25.105Z,99845.34
2018-11-06T20:27:28.826Z,99844.07
2018-11-06T20:31:32.658Z,99848.05
2018-11-06T20:35:36.516Z,99835.72
2018-11-06T20:39:40.444Z,99837.45
2018-11-06T20:43:43.933Z,99837.93
2018-11-06T20:47:47.498Z,99840.17
2018-11-06T20:51:51.144Z,99826.98
2018-11-06T20:55:54.708Z,99839.73
2018-11-06T20:59:58.440Z,99835.36
2018-11-06T21:04:06.477Z,99829.66
2018-11-06T21:08:10.384Z,99838.45
2018-11-06T21:12:14.403Z,99830.94
2018-11-06T21:16:18.977Z,99831.39
2018-11-06T21:20:23.861Z,99826.56
2018-11-06T21:24:27.721Z,99834.05
2018-11-06T21:28:31.558Z,99827.03
2018-11-06T21:32:35.399Z,99834.09
2018-11-06T21:36:40.008Z,99838.94
2018-11-06T21:40:43.815Z,99846.86
2018-11-06T21:44:47.612Z,99846.91
2018-11-06T21:48:51.903Z,99845.59
2018-11-06T21:52:55.751Z,99839.41
2018-11-06T21:56:59.862Z,99840.77
2018-11-06T22:01:03.899Z,99833.30
2018-11-06T22:05:09.211Z,99834.17
2018-11-06T22:09:12.948Z,99837.27
2018-11-06T22:13:16.752Z,99831.13
2018-11-06T22:17:20.523Z,99851.38
2018-11-06T22:21:24.580Z,99843.47
2018-11-06T22:25:28.707Z,99839.05
2018-11-06T22:29:32.525Z,99843.92
2018-11-06T22:33:36.326Z,99835.55
2018-11-06T22:37:40.106Z,99842.16
2018-11-06T22:41:43.908Z,99827.22
2018-11-06T22:45:47.752Z,99837.78
2018-11-06T22:49:51.549Z,99836.05
2018-11-06T22:53:55.322Z,99833.41
2018-11-06T22:57:59.807Z,99835.18
2018-11-06T23:02:03.615Z,99832.96
2018-11-06T23:06:07.867Z,99823.75
2018-11-06T23:10:12.002Z,99818.48
2018-11-06T23:14:15.718Z,99817.61
2018-11-06T23:18:19.744Z,99814.07
2018-11-06T23:22:23.518Z,99818.52
2018-11-06T23:26:27.310Z,99811.47
2018-11-06T23:30:31.071Z,99814.11
2018-11-06T23:34:34.822Z,99822.89
2018-11-06T23:38:38.973Z,99828.17
2018-11-06T23:42:42.624Z,99830.39
2018-11-06T23:46:46.350Z,99833.45
2018-11-06T23:50:50.033Z,99841.81
2018-11-06T23:54:53.615Z,99844.91
2018-11-06T23:59:04.144Z,99845.36
